sensor_id;sensor_type;location;lat;lon;timestamp;temperature;humidity
12967;DHT22;6548;49.996;8.238;2022-12-07T00:01:20;3.30;99.90
12967;DHT22;6548;49.996;8.238;2022-12-07T00:03:48;3.30;99.90
12967;DHT22;6548;49.996;8.238;2022-12-07T00:06:16;3.30;99.90
12967;DHT22;6548;49.996;8.238;2022-12-07T00:47:49;3.30;99.90
12967;DHT22;6548;49.996;8.238;2022-12-07T00:50:58;3.40;99.90
12967;DHT22;6548;49.996;8.238;2022-12-07T00:53:24;3.50;99.90
12967;DHT22;6548;49.996;8.238;2022-12-07T00:55:50;4.60;99.90
12967;DHT22;6548;49.996;8.238;2022-12-07T00:58:16;3.40;99.90
12967;DHT22;6548;49.996;8.238;2022-12-07T01:00:42;3.40;99.90
12967;DHT22;6548;49.996;8.238;2022-12-07T01:03:10;3.30;99.90
12967;DHT22;6548;49.996;8.238;2022-12-07T01:05:37;3.70;99.90
12967;DHT22;6548;49.996;8.238;2022-12-07T01:08:03;3.40;99.90
12967;DHT22;6548;49.996;8.238;2022-12-07T01:10:29;3.40;99.90
12967;DHT22;6548;49.996;8.238;2022-12-07T01:12:56;3.40;99.90
12967;DHT22;6548;49.996;8.238;2022-12-07T01:15:22;3.60;99.90
12967;DHT22;6548;49.996;8.238;2022-12-07T01:17:47;4.20;99.90
12967;DHT22;6548;49.996;8.238;2022-12-07T01:20:13;4.70;99.90
12967;DHT22;6548;49.996;8.238;2022-12-07T01:22:42;3.50;99.90
12967;DHT22;6548;49.996;8.238;2022-12-07T01:25:09;3.40;99.90
12967;DHT22;6548;49.996;8.238;2022-12-07T01:27:36;3.50;99.90
12967;DHT22;6548;49.996;8.238;2022-12-07T01:30:04;3.40;99.90
12967;DHT22;6548;49.996;8.238;2022-12-07T01:32:30;3.40;99.90
12967;DHT22;6548;49.996;8.238;2022-12-07T01:34:56;3.40;99.90
12967;DHT22;6548;49.996;8.238;2022-12-07T01:37:21;3.40;99.90
12967;DHT22;6548;49.996;8.238;2022-12-07T01:39:51;3.40;99.90
12967;DHT22;6548;49.996;8.238;2022-12-07T01:42:17;3.40;99.90
12967;DHT22;6548;49.996;8.238;2022-12-07T01:48:01;3.40;99.90
12967;DHT22;6548;49.996;8.238;2022-12-07T01:50:29;3.40;99.90
12967;DHT22;6548;49.996;8.238;2022-12-07T01:53:00;5.10;99.90
12967;DHT22;6548;49.996;8.238;2022-12-07T01:55:27;3.50;99.90
12967;DHT22;6548;49.996;8.238;2022-12-07T01:57:53;3.40;99.90
12967;DHT22;6548;49.996;8.238;2022-12-07T02:00:19;3.40;99.90
12967;DHT22;6548;49.996;8.238;2022-12-07T02:02:58;3.50;99.90
12967;DHT22;6548;49.996;8.238;2022-12-07T02:05:26;3.50;99.90
12967;DHT22;6548;49.996;8.238;2022-12-07T02:07:55;3.50;99.90
12967;DHT22;6548;49.996;8.238;2022-12-07T02:13:04;3.50;99.90
12967;DHT22;6548;49.996;8.238;2022-12-07T02:29:25;3.50;99.90
12967;DHT22;6548;49.996;8.238;2022-12-07T02:32:11;3.50;99.90
12967;DHT22;6548;49.996;8.238;2022-12-07T02:35:03;3.40;99.90
12967;DHT22;6548;49.996;8.238;2022-12-07T02:37:34;3.50;99.90
12967;DHT22;6548;49.996;8.238;2022-12-07T02:42:40;3.50;99.90
12967;DHT22;6548;49.996;8.238;2022-12-07T02:45:08;3.50;99.90
12967;DHT22;6548;49.996;8.238;2022-12-07T02:47:36;3.50;99.90
12967;DHT22;6548;49.996;8.238;2022-12-07T02:50:04;3.50;99.90
12967;DHT22;6548;49.996;8.238;2022-12-07T02:52:30;3.40;99.90
12967;DHT22;6548;49.996;8.238;2022-12-07T02:54:56;3.50;99.90
12967;DHT22;6548;49.996;8.238;2022-12-07T02:57:41;3.50;99.90
12967;DHT22;6548;49.996;8.238;2022-12-07T03:00:15;3.50;99.90
12967;DHT22;6548;49.996;8.238;2022-12-07T03:02:52;3.50;99.90
12967;DHT22;6548;49.996;8.238;2022-12-07T03:05:52;3.60;99.90
12967;DHT22;6548;49.996;8.238;2022-12-07T03:11:51;3.70;99.90
12967;DHT22;6548;49.996;8.238;2022-12-07T03:14:25;3.80;99.90
12967;DHT22;6548;49.996;8.238;2022-12-07T03:17:02;3.80;99.90
12967;DHT22;6548;49.996;8.238;2022-12-07T03:19:31;3.90;99.90
12967;DHT22;6548;49.996;8.238;2022-12-07T03:22:05;3.90;99.90
12967;DHT22;6548;49.996;8.238;2022-12-07T03:27:11;3.50;99.90
12967;DHT22;6548;49.996;8.238;2022-12-07T03:35:18;5.60;99.90
12967;DHT22;6548;49.996;8.238;2022-12-07T03:42:46;4.20;99.90
12967;DHT22;6548;49.996;8.238;2022-12-07T03:45:12;4.10;99.90
12967;DHT22;6548;49.996;8.238;2022-12-07T03:47:53;4.40;99.90
12967;DHT22;6548;49.996;8.238;2022-12-07T03:50:33;4.20;99.90
12967;DHT22;6548;49.996;8.238;2022-12-07T03:53:14;4.10;99.90
12967;DHT22;6548;49.996;8.238;2022-12-07T03:55:43;4.30;99.90
12967;DHT22;6548;49.996;8.238;2022-12-07T03:58:13;4.20;99.90
12967;DHT22;6548;49.996;8.238;2022-12-07T04:00:42;4.20;99.90
12967;DHT22;6548;49.996;8.238;2022-12-07T04:03:08;4.20;99.90
12967;DHT22;6548;49.996;8.238;2022-12-07T04:05:34;4.20;99.90
12967;DHT22;6548;49.996;8.238;2022-12-07T04:08:00;4.20;99.90
12967;DHT22;6548;49.996;8.238;2022-12-07T04:10:26;4.20;99.90
12967;DHT22;6548;49.996;8.238;2022-12-07T04:12:52;4.30;99.90
12967;DHT22;6548;49.996;8.238;2022-12-07T04:15:17;4.30;99.90
12967;DHT22;6548;49.996;8.238;2022-12-07T04:17:43;4.30;99.90
12967;DHT22;6548;49.996;8.238;2022-12-07T04:20:09;4.30;99.90
12967;DHT22;6548;49.996;8.238;2022-12-07T04:22:35;4.40;99.90
12967;DHT22;6548;49.996;8.238;2022-12-07T04:25:01;4.30;99.90
12967;DHT22;6548;49.996;8.238;2022-12-07T04:27:26;4.30;99.90
12967;DHT22;6548;49.996;8.238;2022-12-07T04:29:52;4.40;99.90
12967;DHT22;6548;49.996;8.238;2022-12-07T04:32:17;4.30;99.90
12967;DHT22;6548;49.996;8.238;2022-12-07T04:34:43;4.30;99.90
12967;DHT22;6548;49.996;8.238;2022-12-07T04:37:09;4.20;99.90
12967;DHT22;6548;49.996;8.238;2022-12-07T04:39:34;4.20;99.90
12967;DHT22;6548;49.996;8.238;2022-12-07T04:42:00;4.20;99.90
12967;DHT22;6548;49.996;8.238;2022-12-07T04:44:27;4.20;99.90
12967;DHT22;6548;49.996;8.238;2022-12-07T04:46:53;4.10;99.90
12967;DHT22;6548;49.996;8.238;2022-12-07T04:49:20;4.10;99.90
12967;DHT22;6548;49.996;8.238;2022-12-07T04:51:46;4.10;99.90
12967;DHT22;6548;49.996;8.238;2022-12-07T04:54:13;5.80;99.90
12967;DHT22;6548;49.996;8.238;2022-12-07T04:56:39;5.50;99.90
12967;DHT22;6548;49.996;8.238;2022-12-07T04:59:05;4.20;99.90
12967;DHT22;6548;49.996;8.238;2022-12-07T05:01:31;4.10;99.90
12967;DHT22;6548;49.996;8.238;2022-12-07T05:03:57;5.40;99.90
12967;DHT22;6548;49.996;8.238;2022-12-07T05:06:23;4.10;99.90
12967;DHT22;6548;49.996;8.238;2022-12-07T05:08:49;4.10;99.90
12967;DHT22;6548;49.996;8.238;2022-12-07T05:11:15;4.10;99.90
12967;DHT22;6548;49.996;8.238;2022-12-07T05:14:02;4.10;99.90
12967;DHT22;6548;49.996;8.238;2022-12-07T05:16:28;4.10;99.90
12967;DHT22;6548;49.996;8.238;2022-12-07T05:18:54;4.10;99.90
12967;DHT22;6548;49.996;8.238;2022-12-07T05:21:20;4.20;99.90
12967;DHT22;6548;49.996;8.238;2022-12-07T05:23:46;4.20;99.90
12967;DHT22;6548;49.996;8.238;2022-12-07T05:26:11;4.20;99.90
12967;DHT22;6548;49.996;8.238;2022-12-07T05:28:37;4.30;99.90
12967;DHT22;6548;49.996;8.238;2022-12-07T05:31:03;4.40;99.90
12967;DHT22;6548;49.996;8.238;2022-12-07T05:33:29;4.40;99.90
12967;DHT22;6548;49.996;8.238;2022-12-07T05:35:54;5.50;99.90
12967;DHT22;6548;49.996;8.238;2022-12-07T05:38:20;4.50;99.90
12967;DHT22;6548;49.996;8.238;2022-12-07T05:40:45;4.60;99.90
12967;DHT22;6548;49.996;8.238;2022-12-07T05:43:11;4.60;99.90
12967;DHT22;6548;49.996;8.238;2022-12-07T05:45:36;4.60;99.90
12967;DHT22;6548;49.996;8.238;2022-12-07T05:48:02;5.90;99.90
12967;DHT22;6548;49.996;8.238;2022-12-07T05:50:28;4.60;99.90
12967;DHT22;6548;49.996;8.238;2022-12-07T05:52:53;4.70;99.90
12967;DHT22;6548;49.996;8.238;2022-12-07T05:55:19;4.70;99.90
12967;DHT22;6548;49.996;8.238;2022-12-07T05:57:45;4.70;99.90
12967;DHT22;6548;49.996;8.238;2022-12-07T06:00:30;6.00;99.90
12967;DHT22;6548;49.996;8.238;2022-12-07T06:02:56;4.70;99.90
12967;DHT22;6548;49.996;8.238;2022-12-07T06:05:22;6.30;99.90
12967;DHT22;6548;49.996;8.238;2022-12-07T06:07:47;4.70;99.90
12967;DHT22;6548;49.996;8.238;2022-12-07T06:10:13;5.80;99.90
12967;DHT22;6548;49.996;8.238;2022-12-07T06:12:39;4.70;99.90
12967;DHT22;6548;49.996;8.238;2022-12-07T06:15:08;4.70;99.90
12967;DHT22;6548;49.996;8.238;2022-12-07T06:17:34;4.70;99.90
12967;DHT22;6548;49.996;8.238;2022-12-07T06:20:00;4.70;99.90
12967;DHT22;6548;49.996;8.238;2022-12-07T06:22:25;4.70;99.90
12967;DHT22;6548;49.996;8.238;2022-12-07T06:24:51;4.70;99.90
12967;DHT22;6548;49.996;8.238;2022-12-07T06:27:16;4.70;99.90
12967;DHT22;6548;49.996;8.238;2022-12-07T06:29:42;4.70;99.90
12967;DHT22;6548;49.996;8.238;2022-12-07T06:32:08;4.60;99.90
12967;DHT22;6548;49.996;8.238;2022-12-07T06:34:34;5.30;99.90
12967;DHT22;6548;49.996;8.238;2022-12-07T06:37:00;4.60;99.90
12967;DHT22;6548;49.996;8.238;2022-12-07T06:39:27;4.60;99.90
12967;DHT22;6548;49.996;8.238;2022-12-07T06:41:53;4.60;99.90
12967;DHT22;6548;49.996;8.238;2022-12-07T06:44:20;4.50;99.90
12967;DHT22;6548;49.996;8.238;2022-12-07T06:46:46;4.80;99.90
12967;DHT22;6548;49.996;8.238;2022-12-07T06:49:12;4.40;99.90
12967;DHT22;6548;49.996;8.238;2022-12-07T06:51:37;5.90;99.90
12967;DHT22;6548;49.996;8.238;2022-12-07T06:54:07;4.20;99.90
12967;DHT22;6548;49.996;8.238;2022-12-07T06:56:33;5.90;99.90
12967;DHT22;6548;49.996;8.238;2022-12-07T06:58:58;4.20;99.90
12967;DHT22;6548;49.996;8.238;2022-12-07T07:01:24;4.20;99.90
12967;DHT22;6548;49.996;8.238;2022-12-07T07:03:49;4.20;99.90
12967;DHT22;6548;49.996;8.238;2022-12-07T07:06:15;4.20;99.90
12967;DHT22;6548;49.996;8.238;2022-12-07T07:08:41;4.20;99.90
12967;DHT22;6548;49.996;8.238;2022-12-07T07:11:07;4.90;99.90
12967;DHT22;6548;49.996;8.238;2022-12-07T07:13:33;5.30;99.90
12967;DHT22;6548;49.996;8.238;2022-12-07T07:15:59;4.30;99.90
12967;DHT22;6548;49.996;8.238;2022-12-07T07:18:25;4.30;99.90
12967;DHT22;6548;49.996;8.238;2022-12-07T07:20:51;4.30;99.90
12967;DHT22;6548;49.996;8.238;2022-12-07T07:23:17;4.40;99.90
12967;DHT22;6548;49.996;8.238;2022-12-07T07:25:43;4.40;99.90
12967;DHT22;6548;49.996;8.238;2022-12-07T07:28:09;4.40;99.90
12967;DHT22;6548;49.996;8.238;2022-12-07T07:30:34;4.40;99.90
12967;DHT22;6548;49.996;8.238;2022-12-07T07:33:01;4.50;99.90
12967;DHT22;6548;49.996;8.238;2022-12-07T07:35:28;4.50;99.90
12967;DHT22;6548;49.996;8.238;2022-12-07T07:37:55;4.50;99.90
12967;DHT22;6548;49.996;8.238;2022-12-07T07:40:20;4.70;99.90
12967;DHT22;6548;49.996;8.238;2022-12-07T07:42:51;4.50;99.90
12967;DHT22;6548;49.996;8.238;2022-12-07T07:45:18;4.60;99.90
12967;DHT22;6548;49.996;8.238;2022-12-07T07:47:43;4.60;99.90
12967;DHT22;6548;49.996;8.238;2022-12-07T07:50:09;4.60;99.90
12967;DHT22;6548;49.996;8.238;2022-12-07T07:52:35;4.60;99.90
12967;DHT22;6548;49.996;8.238;2022-12-07T07:55:00;4.60;99.90
12967;DHT22;6548;49.996;8.238;2022-12-07T07:57:26;4.60;99.90
12967;DHT22;6548;49.996;8.238;2022-12-07T07:59:52;4.60;99.90
12967;DHT22;6548;49.996;8.238;2022-12-07T08:02:21;4.50;99.90
12967;DHT22;6548;49.996;8.238;2022-12-07T08:04:47;4.50;99.90
12967;DHT22;6548;49.996;8.238;2022-12-07T08:07:14;4.50;99.90
12967;DHT22;6548;49.996;8.238;2022-12-07T08:09:40;4.50;99.90
12967;DHT22;6548;49.996;8.238;2022-12-07T08:12:05;4.50;99.90
12967;DHT22;6548;49.996;8.238;2022-12-07T08:14:31;4.50;99.90
12967;DHT22;6548;49.996;8.238;2022-12-07T08:16:57;4.50;99.90
12967;DHT22;6548;49.996;8.238;2022-12-07T08:19:23;4.60;99.90
12967;DHT22;6548;49.996;8.238;2022-12-07T08:21:49;4.60;99.90
12967;DHT22;6548;49.996;8.238;2022-12-07T08:24:14;4.70;99.90
12967;DHT22;6548;49.996;8.238;2022-12-07T08:26:40;4.80;99.90
12967;DHT22;6548;49.996;8.238;2022-12-07T08:29:06;4.80;99.90
12967;DHT22;6548;49.996;8.238;2022-12-07T08:31:32;4.90;99.90
12967;DHT22;6548;49.996;8.238;2022-12-07T08:33:58;5.00;99.90
12967;DHT22;6548;49.996;8.238;2022-12-07T08:36:23;5.00;99.90
12967;DHT22;6548;49.996;8.238;2022-12-07T08:38:49;4.90;99.90
12967;DHT22;6548;49.996;8.238;2022-12-07T08:41:15;5.00;99.90
12967;DHT22;6548;49.996;8.238;2022-12-07T08:43:41;5.10;99.90
12967;DHT22;6548;49.996;8.238;2022-12-07T08:48:46;5.80;99.90
12967;DHT22;6548;49.996;8.238;2022-12-07T08:51:13;6.30;99.90
12967;DHT22;6548;49.996;8.238;2022-12-07T08:53:40;6.60;99.90
12967;DHT22;6548;49.996;8.238;2022-12-07T08:56:07;6.70;99.90
12967;DHT22;6548;49.996;8.238;2022-12-07T08:58:34;6.40;99.90
12967;DHT22;6548;49.996;8.238;2022-12-07T09:01:01;6.10;99.90
12967;DHT22;6548;49.996;8.238;2022-12-07T09:03:26;6.10;99.90
12967;DHT22;6548;49.996;8.238;2022-12-07T09:05:52;5.90;99.90
12967;DHT22;6548;49.996;8.238;2022-12-07T09:08:18;5.80;99.90
12967;DHT22;6548;49.996;8.238;2022-12-07T09:10:45;5.60;99.90
12967;DHT22;6548;49.996;8.238;2022-12-07T09:13:10;5.50;99.90
12967;DHT22;6548;49.996;8.238;2022-12-07T09:15:36;5.50;99.90
12967;DHT22;6548;49.996;8.238;2022-12-07T09:18:01;5.50;99.90
12967;DHT22;6548;49.996;8.238;2022-12-07T09:20:27;5.60;99.90
12967;DHT22;6548;49.996;8.238;2022-12-07T09:22:52;5.80;99.90
12967;DHT22;6548;49.996;8.238;2022-12-07T09:25:18;5.80;99.90
12967;DHT22;6548;49.996;8.238;2022-12-07T09:27:43;6.10;99.90
12967;DHT22;6548;49.996;8.238;2022-12-07T09:30:09;6.20;99.90
12967;DHT22;6548;49.996;8.238;2022-12-07T09:32:35;6.30;99.90
12967;DHT22;6548;49.996;8.238;2022-12-07T09:35:01;6.30;99.90
12967;DHT22;6548;49.996;8.238;2022-12-07T09:37:26;6.20;99.90
12967;DHT22;6548;49.996;8.238;2022-12-07T09:39:52;6.20;99.90
12967;DHT22;6548;49.996;8.238;2022-12-07T09:42:38;6.00;99.90
12967;DHT22;6548;49.996;8.238;2022-12-07T09:45:30;5.90;99.90
12967;DHT22;6548;49.996;8.238;2022-12-07T09:47:58;5.90;99.90
12967;DHT22;6548;49.996;8.238;2022-12-07T09:50:26;6.00;99.90
12967;DHT22;6548;49.996;8.238;2022-12-07T09:52:54;6.00;99.90
12967;DHT22;6548;49.996;8.238;2022-12-07T09:55:28;6.20;99.90
12967;DHT22;6548;49.996;8.238;2022-12-07T09:57:54;6.20;99.90
12967;DHT22;6548;49.996;8.238;2022-12-07T10:00:22;6.10;99.90
12967;DHT22;6548;49.996;8.238;2022-12-07T10:02:57;6.20;99.90
12967;DHT22;6548;49.996;8.238;2022-12-07T10:05:36;6.20;99.90
12967;DHT22;6548;49.996;8.238;2022-12-07T10:08:03;6.40;99.90
12967;DHT22;6548;49.996;8.238;2022-12-07T10:10:31;6.30;99.90
12967;DHT22;6548;49.996;8.238;2022-12-07T10:13:04;6.30;99.90
12967;DHT22;6548;49.996;8.238;2022-12-07T10:15:52;6.20;99.90
12967;DHT22;6548;49.996;8.238;2022-12-07T10:18:27;6.10;99.90
12967;DHT22;6548;49.996;8.238;2022-12-07T10:23:36;5.90;99.90
12967;DHT22;6548;49.996;8.238;2022-12-07T10:26:27;5.80;99.90
12967;DHT22;6548;49.996;8.238;2022-12-07T10:28:55;5.90;99.90
12967;DHT22;6548;49.996;8.238;2022-12-07T10:31:22;5.80;99.90
12967;DHT22;6548;49.996;8.238;2022-12-07T10:36:23;6.00;99.90
12967;DHT22;6548;49.996;8.238;2022-12-07T10:41:17;6.20;99.90
12967;DHT22;6548;49.996;8.238;2022-12-07T10:43:56;6.30;99.90
12967;DHT22;6548;49.996;8.238;2022-12-07T10:46:36;6.30;99.90
12967;DHT22;6548;49.996;8.238;2022-12-07T10:49:27;6.40;99.90
12967;DHT22;6548;49.996;8.238;2022-12-07T11:00:37;6.80;99.90
12967;DHT22;6548;49.996;8.238;2022-12-07T11:03:23;6.90;99.90
12967;DHT22;6548;49.996;8.238;2022-12-07T11:16:47;7.10;99.90
12967;DHT22;6548;49.996;8.238;2022-12-07T11:21:58;7.20;99.90
12967;DHT22;6548;49.996;8.238;2022-12-07T11:24:35;7.50;99.90
12967;DHT22;6548;49.996;8.238;2022-12-07T11:27:09;7.70;99.90
12967;DHT22;6548;49.996;8.238;2022-12-07T11:29:59;7.50;99.90
12967;DHT22;6548;49.996;8.238;2022-12-07T11:33:00;7.60;99.90
12967;DHT22;6548;49.996;8.238;2022-12-07T11:38:37;8.00;99.90
12967;DHT22;6548;49.996;8.238;2022-12-07T11:41:08;8.00;99.90
12967;DHT22;6548;49.996;8.238;2022-12-07T11:46:42;8.20;99.90
12967;DHT22;6548;49.996;8.238;2022-12-07T11:49:19;8.00;99.90
12967;DHT22;6548;49.996;8.238;2022-12-07T11:51:48;7.80;99.90
12967;DHT22;6548;49.996;8.238;2022-12-07T11:54:21;7.40;99.90
12967;DHT22;6548;49.996;8.238;2022-12-07T11:56:49;7.10;99.90
12967;DHT22;6548;49.996;8.238;2022-12-07T12:02:02;6.80;99.90
12967;DHT22;6548;49.996;8.238;2022-12-07T12:07:19;6.60;99.90
12967;DHT22;6548;49.996;8.238;2022-12-07T12:09:55;6.60;99.90
12967;DHT22;6548;49.996;8.238;2022-12-07T12:12:55;6.40;99.90
12967;DHT22;6548;49.996;8.238;2022-12-07T12:18:40;6.30;99.90
12967;DHT22;6548;49.996;8.238;2022-12-07T12:21:17;6.40;99.90
12967;DHT22;6548;49.996;8.238;2022-12-07T12:23:44;6.70;99.90
12967;DHT22;6548;49.996;8.238;2022-12-07T12:26:17;6.90;99.90
12967;DHT22;6548;49.996;8.238;2022-12-07T12:33:50;6.90;99.90
12967;DHT22;6548;49.996;8.238;2022-12-07T12:38:49;6.80;99.90
12967;DHT22;6548;49.996;8.238;2022-12-07T12:46:55;6.70;99.90
12967;DHT22;6548;49.996;8.238;2022-12-07T12:51:50;7.30;99.90
12967;DHT22;6548;49.996;8.238;2022-12-07T12:54:24;7.50;99.90
12967;DHT22;6548;49.996;8.238;2022-12-07T12:59:31;8.30;99.90
12967;DHT22;6548;49.996;8.238;2022-12-07T13:02:29;8.60;99.90
12967;DHT22;6548;49.996;8.238;2022-12-07T13:04:59;9.10;99.90
12967;DHT22;6548;49.996;8.238;2022-12-07T13:10:39;9.50;99.90
12967;DHT22;6548;49.996;8.238;2022-12-07T13:15:54;10.40;99.90
12967;DHT22;6548;49.996;8.238;2022-12-07T13:18:39;10.50;99.90
12967;DHT22;6548;49.996;8.238;2022-12-07T13:26:42;10.90;99.90
12967;DHT22;6548;49.996;8.238;2022-12-07T13:29:13;10.50;99.90
12967;DHT22;6548;49.996;8.238;2022-12-07T13:31:51;9.60;99.90
12967;DHT22;6548;49.996;8.238;2022-12-07T13:36:58;9.90;99.90
12967;DHT22;6548;49.996;8.238;2022-12-07T13:39:26;10.10;99.90
12967;DHT22;6548;49.996;8.238;2022-12-07T13:41:56;9.90;99.90
12967;DHT22;6548;49.996;8.238;2022-12-07T13:44:24;9.20;99.90
12967;DHT22;6548;49.996;8.238;2022-12-07T13:46:59;8.60;99.90
12967;DHT22;6548;49.996;8.238;2022-12-07T13:49:28;8.30;99.90
12967;DHT22;6548;49.996;8.238;2022-12-07T13:51:54;8.10;99.90
12967;DHT22;6548;49.996;8.238;2022-12-07T13:54:21;7.90;99.90
12967;DHT22;6548;49.996;8.238;2022-12-07T13:56:53;7.80;99.90
12967;DHT22;6548;49.996;8.238;2022-12-07T13:59:21;7.80;99.90
12967;DHT22;6548;49.996;8.238;2022-12-07T14:01:49;7.70;99.90
12967;DHT22;6548;49.996;8.238;2022-12-07T14:04:34;8.20;99.90
12967;DHT22;6548;49.996;8.238;2022-12-07T14:07:18;7.60;99.90
12967;DHT22;6548;49.996;8.238;2022-12-07T14:09:54;7.50;99.90
12967;DHT22;6548;49.996;8.238;2022-12-07T14:12:20;7.40;99.90
12967;DHT22;6548;49.996;8.238;2022-12-07T14:14:47;7.40;99.90
12967;DHT22;6548;49.996;8.238;2022-12-07T14:17:22;7.40;99.90
12967;DHT22;6548;49.996;8.238;2022-12-07T14:19:49;7.30;99.90
12967;DHT22;6548;49.996;8.238;2022-12-07T14:22:22;7.40;99.90
12967;DHT22;6548;49.996;8.238;2022-12-07T14:24:48;7.30;99.90
12967;DHT22;6548;49.996;8.238;2022-12-07T14:27:19;7.30;99.90
12967;DHT22;6548;49.996;8.238;2022-12-07T14:29:45;7.20;99.90
12967;DHT22;6548;49.996;8.238;2022-12-07T14:32:24;7.20;99.90
12967;DHT22;6548;49.996;8.238;2022-12-07T14:37:30;7.40;99.90
12967;DHT22;6548;49.996;8.238;2022-12-07T14:39:56;7.50;99.90
12967;DHT22;6548;49.996;8.238;2022-12-07T14:42:25;7.50;99.90
12967;DHT22;6548;49.996;8.238;2022-12-07T14:44:52;7.20;99.90
12967;DHT22;6548;49.996;8.238;2022-12-07T14:47:17;7.00;99.90
12967;DHT22;6548;49.996;8.238;2022-12-07T14:49:43;6.90;99.90
12967;DHT22;6548;49.996;8.238;2022-12-07T14:52:15;6.70;99.90
12967;DHT22;6548;49.996;8.238;2022-12-07T14:54:42;6.50;99.90
12967;DHT22;6548;49.996;8.238;2022-12-07T14:57:09;6.40;99.90
12967;DHT22;6548;49.996;8.238;2022-12-07T14:59:36;6.30;99.90
12967;DHT22;6548;49.996;8.238;2022-12-07T15:02:01;6.50;99.90
12967;DHT22;6548;49.996;8.238;2022-12-07T15:04:27;6.10;99.90
12967;DHT22;6548;49.996;8.238;2022-12-07T15:06:57;6.30;99.90
12967;DHT22;6548;49.996;8.238;2022-12-07T15:09:23;6.40;99.90
12967;DHT22;6548;49.996;8.238;2022-12-07T15:11:48;6.40;99.90
12967;DHT22;6548;49.996;8.238;2022-12-07T15:14:14;6.40;99.90
12967;DHT22;6548;49.996;8.238;2022-12-07T15:16:41;5.90;99.90
12967;DHT22;6548;49.996;8.238;2022-12-07T15:19:16;5.60;99.90
12967;DHT22;6548;49.996;8.238;2022-12-07T15:21:42;5.40;99.90
12967;DHT22;6548;49.996;8.238;2022-12-07T15:24:11;5.20;99.90
12967;DHT22;6548;49.996;8.238;2022-12-07T15:26:38;5.10;99.90
12967;DHT22;6548;49.996;8.238;2022-12-07T15:29:04;5.00;99.90
12967;DHT22;6548;49.996;8.238;2022-12-07T15:31:30;5.00;99.90
12967;DHT22;6548;49.996;8.238;2022-12-07T15:33:56;5.10;99.90
12967;DHT22;6548;49.996;8.238;2022-12-07T15:36:24;5.00;99.90
12967;DHT22;6548;49.996;8.238;2022-12-07T15:38:50;5.00;99.90
12967;DHT22;6548;49.996;8.238;2022-12-07T15:41:16;5.00;99.90
12967;DHT22;6548;49.996;8.238;2022-12-07T15:43:42;4.90;99.90
12967;DHT22;6548;49.996;8.238;2022-12-07T15:46:34;6.10;99.90
12967;DHT22;6548;49.996;8.238;2022-12-07T15:49:00;4.90;99.90
12967;DHT22;6548;49.996;8.238;2022-12-07T15:51:26;4.90;99.90
12967;DHT22;6548;49.996;8.238;2022-12-07T15:53:52;4.70;99.90
12967;DHT22;6548;49.996;8.238;2022-12-07T15:56:18;4.80;99.90
12967;DHT22;6548;49.996;8.238;2022-12-07T15:58:44;4.70;99.90
12967;DHT22;6548;49.996;8.238;2022-12-07T16:01:15;4.60;99.90
12967;DHT22;6548;49.996;8.238;2022-12-07T16:03:41;4.50;99.90
12967;DHT22;6548;49.996;8.238;2022-12-07T16:06:07;4.50;99.90
12967;DHT22;6548;49.996;8.238;2022-12-07T16:08:33;4.40;99.90
12967;DHT22;6548;49.996;8.238;2022-12-07T16:10:59;4.30;99.90
12967;DHT22;6548;49.996;8.238;2022-12-07T16:13:24;5.60;99.90
12967;DHT22;6548;49.996;8.238;2022-12-07T16:15:50;4.20;99.90
12967;DHT22;6548;49.996;8.238;2022-12-07T16:18:16;4.20;99.90
12967;DHT22;6548;49.996;8.238;2022-12-07T16:20:41;4.20;99.90
12967;DHT22;6548;49.996;8.238;2022-12-07T16:23:07;4.20;99.90
12967;DHT22;6548;49.996;8.238;2022-12-07T16:25:34;4.20;99.90
12967;DHT22;6548;49.996;8.238;2022-12-07T16:28:00;5.00;99.90
12967;DHT22;6548;49.996;8.238;2022-12-07T16:30:26;4.10;99.90
12967;DHT22;6548;49.996;8.238;2022-12-07T16:32:51;4.10;99.90
12967;DHT22;6548;49.996;8.238;2022-12-07T16:35:17;4.10;99.90
12967;DHT22;6548;49.996;8.238;2022-12-07T16:37:43;4.20;99.90
12967;DHT22;6548;49.996;8.238;2022-12-07T16:40:10;4.20;99.90
12967;DHT22;6548;49.996;8.238;2022-12-07T16:42:36;4.10;99.90
12967;DHT22;6548;49.996;8.238;2022-12-07T16:45:02;4.10;99.90
12967;DHT22;6548;49.996;8.238;2022-12-07T16:47:28;4.10;99.90
12967;DHT22;6548;49.996;8.238;2022-12-07T16:49:54;4.20;99.90
12967;DHT22;6548;49.996;8.238;2022-12-07T16:52:20;4.20;99.90
12967;DHT22;6548;49.996;8.238;2022-12-07T16:54:46;4.20;99.90
12967;DHT22;6548;49.996;8.238;2022-12-07T16:57:12;4.20;99.90
12967;DHT22;6548;49.996;8.238;2022-12-07T16:59:38;4.20;99.90
12967;DHT22;6548;49.996;8.238;2022-12-07T17:02:03;4.70;99.90
12967;DHT22;6548;49.996;8.238;2022-12-07T17:04:29;4.90;99.90
12967;DHT22;6548;49.996;8.238;2022-12-07T17:06:55;4.20;99.90
12967;DHT22;6548;49.996;8.238;2022-12-07T17:09:20;4.60;99.90
12967;DHT22;6548;49.996;8.238;2022-12-07T17:11:46;4.60;99.90
12967;DHT22;6548;49.996;8.238;2022-12-07T17:14:12;4.30;99.90
12967;DHT22;6548;49.996;8.238;2022-12-07T17:16:56;4.30;99.90
12967;DHT22;6548;49.996;8.238;2022-12-07T17:19:21;4.30;99.90
12967;DHT22;6548;49.996;8.238;2022-12-07T17:21:47;4.30;99.90
12967;DHT22;6548;49.996;8.238;2022-12-07T17:24:15;5.30;99.90
12967;DHT22;6548;49.996;8.238;2022-12-07T17:26:42;4.30;99.90
12967;DHT22;6548;49.996;8.238;2022-12-07T17:29:10;4.30;99.90
12967;DHT22;6548;49.996;8.238;2022-12-07T17:31:36;4.20;99.90
12967;DHT22;6548;49.996;8.238;2022-12-07T17:34:02;4.20;99.90
12967;DHT22;6548;49.996;8.238;2022-12-07T17:36:29;4.20;99.90
12967;DHT22;6548;49.996;8.238;2022-12-07T17:38:56;5.30;99.90
12967;DHT22;6548;49.996;8.238;2022-12-07T17:41:27;4.40;99.90
12967;DHT22;6548;49.996;8.238;2022-12-07T17:44:16;4.60;99.90
12967;DHT22;6548;49.996;8.238;2022-12-07T17:46:43;4.30;99.90
12967;DHT22;6548;49.996;8.238;2022-12-07T17:49:09;4.20;99.90
12967;DHT22;6548;49.996;8.238;2022-12-07T17:51:34;4.30;99.90
12967;DHT22;6548;49.996;8.238;2022-12-07T17:54:19;4.20;99.90
12967;DHT22;6548;49.996;8.238;2022-12-07T17:56:45;4.30;99.90
12967;DHT22;6548;49.996;8.238;2022-12-07T17:59:10;5.10;99.90
12967;DHT22;6548;49.996;8.238;2022-12-07T18:01:36;4.30;99.90
12967;DHT22;6548;49.996;8.238;2022-12-07T18:04:03;4.40;99.90
12967;DHT22;6548;49.996;8.238;2022-12-07T18:06:28;4.30;99.90
12967;DHT22;6548;49.996;8.238;2022-12-07T18:08:54;4.30;99.90
12967;DHT22;6548;49.996;8.238;2022-12-07T18:11:20;4.30;99.90
12967;DHT22;6548;49.996;8.238;2022-12-07T18:13:46;4.30;99.90
12967;DHT22;6548;49.996;8.238;2022-12-07T18:16:14;4.30;99.90
12967;DHT22;6548;49.996;8.238;2022-12-07T18:18:42;4.30;99.90
12967;DHT22;6548;49.996;8.238;2022-12-07T18:21:13;4.30;99.90
12967;DHT22;6548;49.996;8.238;2022-12-07T18:23:40;4.30;99.90
12967;DHT22;6548;49.996;8.238;2022-12-07T18:26:06;4.30;99.90
12967;DHT22;6548;49.996;8.238;2022-12-07T18:28:32;4.30;99.90
12967;DHT22;6548;49.996;8.238;2022-12-07T18:30:57;4.20;99.90
12967;DHT22;6548;49.996;8.238;2022-12-07T18:33:23;4.20;99.90
12967;DHT22;6548;49.996;8.238;2022-12-07T18:35:49;4.30;99.90
12967;DHT22;6548;49.996;8.238;2022-12-07T18:38:15;4.20;99.90
12967;DHT22;6548;49.996;8.238;2022-12-07T18:40:42;4.30;99.90
12967;DHT22;6548;49.996;8.238;2022-12-07T18:43:09;4.30;99.90
12967;DHT22;6548;49.996;8.238;2022-12-07T18:45:40;4.30;99.90
12967;DHT22;6548;49.996;8.238;2022-12-07T18:48:07;4.30;99.90
12967;DHT22;6548;49.996;8.238;2022-12-07T18:50:34;4.30;99.90
12967;DHT22;6548;49.996;8.238;2022-12-07T18:53:01;4.20;99.90